Weston, Pennsylvania
Current Conditions -  °F | °C
As of 3:15 AM on Monday 26 Jan 2015 (Local Time) from KHZL Reporting Station
Light Snow Light Snow  
Wind Chill: 13°   Ceiling: 1400
Heat Index: 19°   Visibility: 1.5mi
Dew Point: 14°   Wind: 5mph
Humidity: 80%   Direction: 50°NE
Pressure: 29.89"   Gusts: NA
Location:  40.94°N, 76.14°W
Report Text: KHZL 260815Z AUTO 05004KT 1 1/2SM -SN OVC014 M07/M10 A2989 RMK AO2
Loading
Personal Weather Stations






























Interactive Weather Map New forecast layout! Learn more

10-Day Weather Forecast

Advertisements
Track Severe Weather on mobile